Time;durP1;ratioP1;P1;durP2;ratioP2;P2;SDS_P1;SDS_P2;PMS_P1;PMS_P2;Temp;Humidity;BMP_temperature;BMP_pressure;BME280_temperature;BME280_humidity;BME280_pressure;Samples;Min_cycle;Max_cycle;Signal;HPM_P1;HPM_P2
2023/09/21 00:01:05;;;;;;;18.48;17.23;;;;;;;18.63;63.37;99684.97;5028935;27;101387;-75
2023/09/21 00:03:31;;;;;;;17.88;16.38;;;;;;;18.55;63.22;99666.94;5035323;27;101282;-75
2023/09/21 00:05:57;;;;;;;18.92;17.65;;;;;;;18.80;63.10;99706.78;5050104;27;97141;-76
2023/09/21 00:08:23;;;;;;;19.00;17.40;;;;;;;18.68;63.42;99705.88;5053875;27;97022;-78
2023/09/21 00:10:53;;;;;;;18.48;17.08;;;;;;;18.67;63.69;99702.34;5034791;27;98526;-77
2023/09/21 00:13:20;;;;;;;18.88;17.38;;;;;;;18.65;63.58;99700.81;5045720;27;98029;-75
2023/09/21 00:15:47;;;;;;;19.88;18.58;;;;;;;18.58;63.99;99689.78;5052372;27;97151;-76
2023/09/21 00:18:13;;;;;;;19.60;18.20;;;;;;;18.57;63.89;99689.91;5053264;27;97403;-76
2023/09/21 00:20:43;;;;;;;19.50;18.00;;;;;;;18.54;64.10;99686.53;5031712;27;100570;-76
2023/09/21 00:23:09;;;;;;;19.55;18.10;;;;;;;18.46;64.00;99674.78;5054184;27;99402;-76
2023/09/21 00:25:36;;;;;;;20.80;19.40;;;;;;;18.30;64.47;99656.53;5053817;27;96767;-77
2023/09/21 00:28:07;;;;;;;19.80;18.02;;;;;;;18.30;64.74;99681.28;5052670;27;96973;-76
2023/09/21 00:30:35;;;;;;;18.20;16.90;;;;;;;18.48;64.16;99681.69;5036554;27;97565;-75
2023/09/21 00:33:02;;;;;;;18.92;17.52;;;;;;;18.38;64.08;99653.28;5052365;27;101733;-76
2023/09/21 00:35:28;;;;;;;17.52;15.85;;;;;;;18.42;64.16;99665.38;5052707;27;97542;-76
2023/09/21 00:37:56;;;;;;;17.67;16.45;;;;;;;18.20;64.85;99644.91;5033423;27;96981;-76
2023/09/21 00:40:22;;;;;;;18.27;16.90;;;;;;;18.37;64.61;99668.38;5052465;27;97888;-79
2023/09/21 00:42:51;;;;;;;18.23;16.67;;;;;;;18.42;64.14;99668.88;5052413;27;98068;-76
2023/09/21 00:45:18;;;;;;;18.58;17.10;;;;;;;18.48;64.01;99668.41;5035399;27;97234;-81
2023/09/21 00:47:51;;;;;;;19.50;17.77;;;;;;;18.53;64.18;99673.38;5035001;27;97631;-76
2023/09/21 00:50:21;;;;;;;19.08;17.65;;;;;;;18.48;63.93;99657.75;5015490;27;101352;-77
2023/09/21 00:52:52;;;;;;;18.47;17.17;;;;;;;18.57;63.81;99671.31;5032033;28;100181;-76
2023/09/21 00:55:28;;;;;;;18.92;17.42;;;;;;;18.58;63.56;99673.00;5052349;27;96732;-77
2023/09/21 00:57:55;;;;;;;17.83;16.55;;;;;;;18.48;63.87;99665.75;5035116;27;96913;-77
2023/09/21 01:00:26;;;;;;;17.70;16.50;;;;;;;18.38;64.10;99651.47;5050375;27;101171;-76
2023/09/21 01:02:53;;;;;;;18.05;16.85;;;;;;;18.44;63.98;99655.44;5053069;27;98509;-79
2023/09/21 01:05:21;;;;;;;17.00;15.60;;;;;;;18.49;63.98;99659.44;5018076;27;97926;-77
2023/09/21 01:07:50;;;;;;;18.80;17.42;;;;;;;18.57;63.73;99669.50;5027401;27;96995;-76
2023/09/21 01:10:19;;;;;;;17.80;16.58;;;;;;;18.41;63.71;99634.44;5014389;28;99386;-75
2023/09/21 01:12:48;;;;;;;17.85;16.65;;;;;;;18.17;64.23;99613.28;5043872;27;101202;-76
2023/09/21 01:15:14;;;;;;;17.63;16.45;;;;;;;18.22;64.88;99645.66;5032312;27;96883;-76
2023/09/21 01:17:44;;;;;;;19.75;18.33;;;;;;;18.25;64.66;99642.75;5028217;27;97644;-78
2023/09/21 01:20:33;;;;;;;20.23;18.80;;;;;;;18.28;64.93;99637.19;5052007;27;98455;-76
2023/09/21 01:23:11;;;;;;;19.45;17.95;;;;;;;18.08;65.16;99644.88;5051254;27;101317;-76
2023/09/21 01:25:41;;;;;;;19.17;17.20;;;;;;;18.09;65.35;99635.97;5035191;27;97413;-75
2023/09/21 01:28:18;;;;;;;17.88;16.52;;;;;;;17.88;65.74;99638.41;5034656;27;96841;-80
2023/09/21 01:30:44;;;;;;;27.35;16.70;;;;;;;17.74;65.99;99617.31;5031563;27;101862;-76
2023/09/21 01:33:11;;;;;;;17.83;16.63;;;;;;;17.96;65.64;99631.69;5022596;27;100993;-76
2023/09/21 01:35:40;;;;;;;18.02;16.63;;;;;;;17.86;65.44;99613.81;5030758;27;96806;-76
2023/09/21 01:38:07;;;;;;;18.88;16.92;;;;;;;18.09;65.35;99627.13;5031737;27;97059;-76
2023/09/21 01:40:34;;;;;;;15.38;14.27;;;;;;;18.01;65.23;99613.59;5052538;27;97292;-78
2023/09/21 01:43:08;;;;;;;15.65;14.38;;;;;;;17.97;65.59;99639.53;5032442;27;101553;-75
2023/09/21 01:45:37;;;;;;;15.68;14.48;;;;;;;17.75;66.20;99620.84;5052084;27;97102;-82
2023/09/21 01:48:08;;;;;;;15.57;14.38;;;;;;;17.59;67.02;99619.31;5049520;27;96935;-76
2023/09/21 01:50:43;;;;;;;15.77;14.40;;;;;;;17.42;67.39;99614.41;5033456;27;101462;-76
2023/09/21 01:53:09;;;;;;;16.02;14.82;;;;;;;17.29;67.84;99621.59;5052130;27;98081;-76
2023/09/21 01:55:36;;;;;;;16.90;15.25;;;;;;;17.12;67.74;99585.69;5030261;27;99562;-76
2023/09/21 01:58:04;;;;;;;16.90;15.60;;;;;;;17.39;67.47;99617.28;5051352;27;97343;-76
2023/09/21 02:00:34;;;;;;;15.70;14.40;;;;;;;17.31;67.50;99595.81;5024358;27;102000;-77
2023/09/21 02:03:03;;;;;;;15.60;14.15;;;;;;;17.45;67.65;99616.00;5046980;27;99376;-75
2023/09/21 02:05:28;;;;;;;15.00;13.80;;;;;;;17.47;67.49;99598.16;5050686;27;97440;-77
2023/09/21 02:07:55;;;;;;;14.88;13.73;;;;;;;17.24;67.55;99581.28;5033990;27;96846;-76
2023/09/21 02:10:21;;;;;;;14.25;13.02;;;;;;;17.28;67.83;99599.53;5033980;27;101039;-77
2023/09/21 02:12:57;;;;;;;12.70;11.80;;;;;;;17.36;67.56;99594.47;5050834;27;97369;-76
2023/09/21 02:15:24;;;;;;;15.23;14.10;;;;;;;17.34;67.09;99575.19;5013611;28;97254;-79
2023/09/21 02:17:52;;;;;;;17.05;15.63;;;;;;;17.46;67.20;99584.06;5012157;27;97066;-76
2023/09/21 02:20:20;;;;;;;16.55;14.93;;;;;;;17.41;67.20;99581.72;5051000;27;97542;-78
2023/09/21 02:22:47;;;;;;;16.67;15.10;;;;;;;17.43;66.66;99563.91;5050922;27;98034;-75
2023/09/21 02:25:13;;;;;;;20.65;18.88;;;;;;;17.60;66.67;99588.34;5033643;27;97048;-76
2023/09/21 02:27:40;;;;;;;26.42;24.08;;;;;;;17.42;67.35;99583.44;5050531;27;97378;-76
2023/09/21 02:30:14;;;;;;;26.30;24.15;;;;;;;17.47;66.74;99571.63;5033775;27;100243;-75
2023/09/21 02:32:41;;;;;;;26.13;24.02;;;;;;;17.41;67.17;99588.84;5034465;27;101652;-76
2023/09/21 02:35:13;;;;;;;5.30;3.25;;;;;;;17.41;67.03;99584.38;5050283;27;97156;-75
2023/09/21 02:37:42;;;;;;;7.50;3.10;;;;;;;17.42;67.06;99578.13;5030814;27;97220;-76
2023/09/21 02:40:08;;;;;;;6.60;4.22;;;;;;;17.36;67.31;99575.91;5046667;27;98156;-76
2023/09/21 02:42:34;;;;;;;26.77;24.45;;;;;;;17.41;67.08;99570.28;5051321;27;97341;-76
2023/09/21 02:44:59;;;;;;;27.45;25.25;;;;;;;17.33;66.72;99556.72;5030973;27;96727;-76
2023/09/21 02:47:28;;;;;;;27.23;25.08;;;;;;;17.43;66.53;99566.56;5029826;28;97226;-75
2023/09/21 02:49:53;;;;;;;22.50;20.85;;;;;;;17.39;66.90;99556.28;5018851;27;101207;-80
2023/09/21 02:52:21;;;;;;;25.83;23.85;;;;;;;17.58;66.46;99577.84;5033379;27;101540;-78
2023/09/21 02:54:46;;;;;;;28.25;26.05;;;;;;;17.60;66.08;99575.06;5034332;27;96940;-75
2023/09/21 02:57:12;;;;;;;23.27;21.30;;;;;;;17.42;66.37;99548.97;5033062;27;97007;-75
2023/09/21 02:59:38;;;;;;;27.73;25.48;;;;;;;17.52;66.64;99570.34;5033864;27;100731;-76
2023/09/21 03:02:04;;;;;;;26.52;24.23;;;;;;;17.54;66.48;99573.72;5030262;27;101168;-76
2023/09/21 03:04:31;;;;;;;27.90;25.33;;;;;;;17.55;66.39;99575.41;5033671;27;97271;-77
2023/09/21 03:06:57;;;;;;;25.30;23.25;;;;;;;17.46;66.75;99572.59;5030073;27;97007;-75
2023/09/21 03:09:23;;;;;;;24.40;22.30;;;;;;;17.53;66.58;99574.66;5041648;27;97962;-75
2023/09/21 03:11:48;;;;;;;25.60;23.70;;;;;;;17.49;66.58;99570.56;5012863;27;102182;-76
2023/09/21 03:14:14;;;;;;;24.55;22.55;;;;;;;17.47;66.84;99577.78;5033170;27;97293;-75
2023/09/21 03:16:44;;;;;;;25.05;22.63;;;;;;;17.51;66.81;99566.00;5012680;28;96903;-76
2023/09/21 03:19:10;;;;;;;22.92;21.00;;;;;;;17.34;66.80;99556.63;5041565;27;100893;-76
2023/09/21 03:21:35;;;;;;;24.98;23.08;;;;;;;17.36;66.53;99557.34;5050282;27;97824;-75
2023/09/21 03:24:02;;;;;;;24.90;22.77;;;;;;;17.41;66.97;99570.28;5050219;27;97192;-76
2023/09/21 03:26:28;;;;;;;24.25;22.25;;;;;;;17.41;66.85;99565.81;5050151;27;97164;-76
2023/09/21 03:28:54;;;;;;;28.05;25.85;;;;;;;17.41;66.82;99559.66;5047091;27;97402;-76
2023/09/21 03:31:20;;;;;;;27.27;25.27;;;;;;;17.15;67.29;99550.97;5032384;27;101725;-76
2023/09/21 03:33:46;;;;;;;25.80;23.65;;;;;;;17.30;66.88;99556.97;5033324;27;96978;-75
2023/09/21 03:36:13;;;;;;;26.73;24.65;;;;;;;17.19;67.21;99544.47;5032740;27;97072;-75
2023/09/21 03:38:40;;;;;;;26.08;23.92;;;;;;;17.25;67.28;99553.78;5032619;27;101580;-76
2023/09/21 03:41:06;;;;;;;29.70;24.23;;;;;;;17.23;67.34;99548.63;5029271;28;97486;-75
2023/09/21 03:43:31;;;;;;;11.60;9.07;;;;;;;17.18;67.17;99538.34;5015330;27;97278;-76
2023/09/21 03:45:56;;;;;;;22.48;20.38;;;;;;;17.09;67.63;99539.03;5028821;27;97182;-75
2023/09/21 03:48:22;;;;;;;20.92;19.02;;;;;;;17.15;67.54;99540.38;5053145;27;97459;-75
2023/09/21 03:50:51;;;;;;;8.35;4.90;;;;;;;17.14;67.61;99533.38;5032631;27;101102;-77
2023/09/21 03:53:17;;;;;;;14.13;13.18;;;;;;;17.09;67.43;99530.22;5033012;27;97908;-75
2023/09/21 03:55:46;;;;;;;8.93;3.88;;;;;;;17.09;67.45;99527.56;5048222;27;97319;-77
2023/09/21 03:58:12;;;;;;;10.57;3.65;;;;;;;17.10;67.45;99526.59;5032874;27;101150;-75
2023/09/21 04:00:38;;;;;;;7.10;3.50;;;;;;;17.16;67.31;99529.66;5051789;27;101140;-76
2023/09/21 04:03:08;;;;;;;5.75;3.55;;;;;;;17.10;67.67;99522.16;5036576;27;97290;-75
2023/09/21 04:05:40;;;;;;;9.38;7.30;;;;;;;17.02;68.18;99519.22;5036444;27;97017;-76
2023/09/21 04:08:06;;;;;;;18.75;16.65;;;;;;;16.84;67.99;99502.88;5035602;27;100894;-75
2023/09/21 04:10:32;;;;;;;9.63;4.45;;;;;;;16.97;67.93;99524.00;5015220;28;101312;-77
2023/09/21 04:12:58;;;;;;;8.25;5.75;;;;;;;16.92;67.90;99515.53;5023800;28;97175;-74
2023/09/21 04:15:25;;;;;;;7.25;3.30;;;;;;;16.82;67.77;99496.81;5034986;27;97011;-81
2023/09/21 04:17:51;;;;;;;6.15;4.22;;;;;;;16.87;68.37;99517.69;5030779;27;97962;-75
2023/09/21 04:20:18;;;;;;;19.55;16.05;;;;;;;16.98;68.04;99528.34;5012838;28;99631;-79
2023/09/21 04:22:46;;;;;;;7.55;3.53;;;;;;;16.98;68.08;99523.88;5020016;27;96774;-73
2023/09/21 04:25:14;;;;;;;18.98;3.95;;;;;;;16.86;67.70;99494.78;5029317;27;98000;-75
2023/09/21 04:27:41;;;;;;;19.05;17.58;;;;;;;16.97;67.81;99510.75;5044030;27;97942;-75
2023/09/21 04:30:14;;;;;;;18.33;16.88;;;;;;;16.90;67.62;99494.47;5027885;27;101488;-77
2023/09/21 04:32:42;;;;;;;20.92;18.80;;;;;;;16.80;67.82;99479.34;5026684;27;96868;-75
2023/09/21 04:35:08;;;;;;;26.17;23.52;;;;;;;17.00;67.84;99515.84;5023280;28;96957;-76
2023/09/21 04:37:34;;;;;;;6.75;3.72;;;;;;;16.85;67.96;99488.66;5033823;27;97895;-75
2023/09/21 04:40:05;;;;;;;11.35;7.03;;;;;;;16.74;67.92;99484.09;5032308;27;100756;-74
2023/09/21 04:42:32;;;;;;;9.20;6.28;;;;;;;16.90;68.05;99504.19;5030388;27;96866;-74
2023/09/21 04:44:58;;;;;;;4.55;3.53;;;;;;;16.95;67.88;99507.38;5045659;27;96804;-74
2023/09/21 04:47:24;;;;;;;8.07;3.80;;;;;;;17.01;67.54;99500.78;5047473;27;97678;-77
2023/09/21 04:49:53;;;;;;;6.00;4.25;;;;;;;17.06;67.53;99507.44;5011952;27;100261;-74
2023/09/21 04:52:21;;;;;;;5.43;4.05;;;;;;;17.06;67.33;99495.97;5034225;27;97019;-75
2023/09/21 04:54:51;;;;;;;6.65;4.25;;;;;;;17.05;67.75;99503.09;5022799;28;96823;-75
2023/09/21 04:57:18;;;;;;;10.80;6.25;;;;;;;17.09;67.69;99507.19;5059138;27;101651;-75
2023/09/21 04:59:44;;;;;;;6.93;6.25;;;;;;;17.11;67.81;99496.50;5014737;27;100772;-76
2023/09/21 05:02:11;;;;;;;5.55;3.75;;;;;;;17.11;67.89;99497.34;5032891;27;96764;-76
2023/09/21 05:04:37;;;;;;;6.68;3.95;;;;;;;17.17;67.63;99501.34;5018159;27;96875;-76
2023/09/21 05:07:02;;;;;;;7.15;3.70;;;;;;;17.26;67.39;99502.47;5033698;27;101092;-76
2023/09/21 05:09:28;;;;;;;9.10;4.95;;;;;;;17.19;67.46;99499.41;5018027;27;101156;-75
2023/09/21 05:11:53;;;;;;;10.43;4.28;;;;;;;17.20;67.50;99504.59;5014544;28;97522;-78
2023/09/21 05:14:21;;;;;;;6.85;3.72;;;;;;;17.27;67.20;99496.19;5030734;27;96896;-77
2023/09/21 05:16:47;;;;;;;8.40;3.95;;;;;;;17.29;67.35;99496.94;5030181;27;99671;-77
2023/09/21 05:19:14;;;;;;;6.68;4.35;;;;;;;17.17;67.16;99469.53;5034297;27;101418;-77
2023/09/21 05:21:40;;;;;;;8.95;4.07;;;;;;;17.30;66.99;99477.38;5029023;28;96886;-77
2023/09/21 05:24:07;;;;;;;11.57;3.33;;;;;;;17.56;66.54;99502.78;5046078;27;96928;-78
2023/09/21 05:26:33;;;;;;;10.27;3.50;;;;;;;17.57;66.49;99501.84;5033690;27;97887;-77
2023/09/21 05:28:58;;;;;;;5.13;3.17;;;;;;;17.54;66.70;99490.59;5051125;27;97982;-77
2023/09/21 05:31:24;;;;;;;6.72;3.65;;;;;;;17.43;66.93;99497.59;5038288;27;97192;-79
2023/09/21 05:33:49;;;;;;;8.18;5.28;;;;;;;17.32;67.73;99488.75;5050021;27;96925;-78
2023/09/21 05:36:15;;;;;;;9.35;7.00;;;;;;;17.50;66.87;99481.19;5040761;27;98000;-77
2023/09/21 05:38:41;;;;;;;9.73;4.85;;;;;;;17.63;66.82;99480.16;5051696;27;97526;-77
2023/09/21 05:41:06;;;;;;;8.52;5.63;;;;;;;17.81;66.46;99495.66;5025310;27;96918;-77
2023/09/21 05:43:32;;;;;;;8.93;5.80;;;;;;;18.04;65.26;99470.81;5052756;27;96821;-77
2023/09/21 05:45:58;;;;;;;29.33;26.83;;;;;;;18.10;64.82;99456.22;5025830;27;97898;-77
2023/09/21 05:48:23;;;;;;;29.80;26.95;;;;;;;18.47;64.52;99485.16;5052760;27;97223;-79
2023/09/21 05:50:49;;;;;;;8.80;7.90;;;;;;;18.55;64.35;99488.03;5032952;27;97629;-79
2023/09/21 05:53:15;;;;;;;11.18;8.05;;;;;;;18.80;63.40;99489.59;5051668;27;98323;-76
2023/09/21 05:55:43;;;;;;;8.88;8.00;;;;;;;19.07;62.84;99475.84;5039253;27;98227;-76
2023/09/21 05:58:09;;;;;;;15.32;8.57;;;;;;;19.35;62.12;99493.03;5028580;27;101547;-73
2023/09/21 06:00:35;;;;;;;19.33;18.00;;;;;;;19.28;62.32;99477.69;5046779;27;97568;-76
2023/09/21 06:03:00;;;;;;;16.95;15.45;;;;;;;19.75;60.93;99494.16;5046357;27;96861;-76
2023/09/21 06:05:27;;;;;;;19.20;15.60;;;;;;;20.16;59.78;99487.09;5043044;27;98503;-76
2023/09/21 06:07:53;;;;;;;16.45;15.15;;;;;;;20.37;59.26;99495.06;5010264;27;101076;-76
2023/09/21 06:10:18;;;;;;;17.90;16.40;;;;;;;20.97;57.64;99467.44;5044060;27;97334;-76
2023/09/21 06:12:44;;;;;;;18.40;17.05;;;;;;;;;;5030640;27;97211;-76
2023/09/21 06:15:10;;;;;;;17.05;15.70;;;;;;;22.47;53.83;99484.59;5037363;27;97269;-76
2023/09/21 06:17:35;;;;;;;16.77;15.38;;;;;;;23.34;51.83;99487.69;5046000;27;97558;-77
2023/09/21 06:20:03;;;;;;;16.83;15.18;;;;;;;24.62;48.79;99471.75;5032840;27;97068;-77
2023/09/21 06:22:31;;;;;;;21.33;17.65;;;;;;;25.70;46.69;99481.63;5049475;27;97396;-77
2023/09/21 06:24:57;;;;;;;19.85;18.20;;;;;;;27.39;43.27;99484.78;5018408;27;100866;-76
2023/09/21 06:27:23;;;;;;;20.27;18.48;;;;;;;27.88;41.39;99473.59;5040662;27;97461;-80
2023/09/21 06:29:50;;;;;;;17.48;15.68;;;;;;;27.09;42.35;99479.25;5034436;27;96874;-82
2023/09/21 06:32:18;;;;;;;17.48;5.07;;;;;;;29.49;38.97;99486.13;5025791;28;97662;-80
2023/09/21 06:34:45;;;;;;;11.90;8.07;;;;;;;30.56;37.13;99476.03;5030108;27;101770;-81
2023/09/21 06:37:14;;;;;;;11.80;10.38;;;;;;;31.93;34.68;99464.81;5031475;27;101354;-79
2023/09/21 06:39:40;;;;;;;11.15;7.93;;;;;;;32.46;34.17;99467.41;5029609;27;97489;-79
2023/09/21 06:42:06;;;;;;;17.02;15.57;;;;;;;33.43;32.90;99464.53;5051967;27;96782;-77
2023/09/21 06:44:32;;;;;;;5.82;3.17;;;;;;;33.12;32.55;99449.09;5027439;27;98142;-78
2023/09/21 06:46:57;;;;;;;4.35;2.97;;;;;;;34.32;31.18;99465.16;5046073;27;98995;-78
2023/09/21 06:49:23;;;;;;;6.75;4.38;;;;;;;34.54;30.45;99470.16;5047203;27;96833;-82
2023/09/21 06:51:49;;;;;;;4.40;3.13;;;;;;;33.97;31.45;99449.41;5045689;27;97348;-79
2023/09/21 06:54:15;;;;;;;6.10;2.88;;;;;;;34.43;30.38;99463.56;5047225;27;97530;-77
2023/09/21 06:56:41;;;;;;;8.68;3.38;;;;;;;33.19;32.22;99455.28;5030657;27;99611;-78
2023/09/21 06:59:07;;;;;;;5.32;3.00;;;;;;;31.98;33.95;99473.16;5049309;27;96681;-79
2023/09/21 07:01:33;;;;;;;7.68;3.25;;;;;;;35.41;30.20;99443.34;5049282;27;96988;-79
2023/09/21 07:03:59;;;;;;;8.65;2.80;;;;;;;35.82;29.17;99461.53;5046439;27;97312;-79
2023/09/21 07:06:24;;;;;;;6.22;3.58;;;;;;;37.39;27.23;99458.69;5028810;27;98117;-83
2023/09/21 07:08:50;;;;;;;5.47;2.90;;;;;;;38.27;26.32;99459.72;5028318;27;96769;-84
2023/09/21 07:11:19;;;;;;;10.02;4.65;;;;;;;38.90;25.68;99442.97;5028641;27;96872;-81
2023/09/21 07:13:46;;;;;;;6.25;4.25;;;;;;;38.69;25.04;99448.19;5033108;27;98422;-75
2023/09/21 07:16:13;;;;;;;5.50;2.90;;;;;;;39.15;25.19;99451.41;5022990;27;101067;-76
2023/09/21 07:18:39;;;;;;;5.65;3.83;;;;;;;40.73;23.30;99443.31;5047650;27;97452;-74
2023/09/21 07:21:05;;;;;;;5.88;4.03;;;;;;;41.01;23.24;99435.66;5031836;27;97393;-77
2023/09/21 07:23:31;;;;;;;8.77;3.92;;;;;;;41.15;23.14;99453.31;5051186;27;97591;-74
2023/09/21 07:25:57;;;;;;;3.75;2.88;;;;;;;40.92;23.02;99451.88;5054727;27;97439;-75
2023/09/21 07:28:23;;;;;;;16.05;13.80;;;;;;;41.39;22.32;99453.56;5054585;27;97240;-74
2023/09/21 07:30:52;;;;;;;15.73;14.13;;;;;;;39.12;24.43;99440.94;5034247;27;97222;-75
2023/09/21 07:33:20;;;;;;;12.10;11.05;;;;;;;40.89;23.06;99444.16;5052418;27;98783;-76
2023/09/21 07:35:51;;;;;;;8.55;3.10;;;;;;;40.00;23.88;99459.78;5053201;27;97632;-74
2023/09/21 07:38:21;;;;;;;4.03;2.78;;;;;;;41.37;22.76;99452.22;5054902;27;96858;-77
2023/09/21 07:40:47;;;;;;;7.22;2.65;;;;;;;42.19;21.97;99450.16;5053668;27;96702;-74
2023/09/21 07:43:13;;;;;;;5.15;3.00;;;;;;;42.39;21.88;99435.47;5053848;27;97383;-75
2023/09/21 07:45:38;;;;;;;6.88;3.35;;;;;;;41.73;22.43;99438.41;5054037;27;97359;-76
2023/09/21 07:48:05;;;;;;;6.70;3.55;;;;;;;40.97;23.18;99437.31;5049872;27;97047;-80
2023/09/21 07:50:34;;;;;;;5.13;4.55;;;;;;;41.08;23.07;99417.00;5051330;27;96966;-80
2023/09/21 07:53:03;;;;;;;8.98;8.05;;;;;;;42.17;21.77;99429.47;5054567;27;97453;-81
2023/09/21 07:55:29;;;;;;;5.75;2.97;;;;;;;43.29;20.94;99425.22;5052332;27;97861;-79
2023/09/21 07:57:55;;;;;;;6.45;3.10;;;;;;;43.63;20.70;99425.22;5053377;27;96754;-80
2023/09/21 08:00:22;;;;;;;6.25;3.13;;;;;;;45.07;19.49;99427.78;5054658;27;96790;-78
2023/09/21 08:02:47;;;;;;;9.55;3.10;;;;;;;45.03;19.46;99426.72;5049312;27;97552;-83
2023/09/21 08:05:13;;;;;;;4.80;3.28;;;;;;;45.47;19.22;99421.84;5038633;27;98346;-82
2023/09/21 08:07:40;;;;;;;6.82;2.92;;;;;;;47.03;17.63;99409.72;5049004;27;97426;-79
2023/09/21 08:10:07;;;;;;;6.63;4.95;;;;;;;43.36;20.52;99423.78;5036676;27;96923;-77
2023/09/21 08:12:35;;;;;;;9.68;8.73;;;;;;;44.35;19.92;99408.63;5052615;27;97504;-84
2023/09/21 08:15:00;;;;;;;12.13;11.05;;;;;;;47.06;18.40;99402.72;5051868;27;97796;-79
2023/09/21 08:17:29;;;;;;;29.45;27.02;;;;;;;47.62;17.41;99407.63;5031133;27;96834;-81
2023/09/21 08:19:56;;;;;;;12.80;11.50;;;;;;;48.19;17.02;99409.63;5021978;27;97738;-81
2023/09/21 08:22:21;;;;;;;11.73;10.73;;;;;;;49.02;16.63;99393.94;5031230;27;100776;-81
2023/09/21 08:24:47;;;;;;;5.80;3.20;;;;;;;46.58;18.50;99392.19;5046440;27;97414;-81
2023/09/21 08:27:12;;;;;;;5.20;2.85;;;;;;;44.46;19.95;99398.28;5025792;27;98174;-80
2023/09/21 08:29:38;;;;;;;7.88;3.05;;;;;;;45.24;19.35;99382.09;5024946;27;96905;-80
2023/09/21 08:32:04;;;;;;;6.85;3.15;;;;;;;46.08;18.19;99370.78;5048115;27;97681;-80
2023/09/21 08:34:29;;;;;;;8.05;2.78;;;;;;;47.93;17.30;99389.28;5040585;27;97557;-80
2023/09/21 08:36:55;;;;;;;4.45;2.65;;;;;;;48.37;16.94;99379.88;5051362;27;97297;-80
2023/09/21 08:39:20;;;;;;;4.60;3.20;;;;;;;48.35;16.92;99390.53;5016490;27;97073;-80
2023/09/21 08:41:50;;;;;;;4.65;2.95;;;;;;;50.06;15.63;99382.44;5044682;27;97539;-81
2023/09/21 08:44:17;;;;;;;6.35;3.17;;;;;;;49.53;16.25;99375.47;5050908;27;98114;-79
2023/09/21 08:46:45;;;;;;;7.27;3.20;;;;;;;49.56;16.11;99378.41;5051480;27;96752;-80
2023/09/21 08:49:12;;;;;;;4.32;2.88;;;;;;;51.98;14.84;99370.97;5052324;27;96825;-80
2023/09/21 08:51:40;;;;;;;5.73;3.97;;;;;;;51.44;15.23;99353.66;5052437;27;97980;-79
2023/09/21 08:54:11;;;;;;;5.65;3.53;;;;;;;51.07;15.38;99365.53;5034567;27;97886;-80
2023/09/21 08:56:37;;;;;;;5.97;3.53;;;;;;;50.12;15.40;99369.94;5035586;27;97098;-81
2023/09/21 08:59:04;;;;;;;11.77;3.78;;;;;;;46.30;17.81;99358.97;5035597;27;97249;-80
2023/09/21 09:01:31;;;;;;;7.20;4.20;;;;;;;47.13;17.83;99361.44;5051851;27;101396;-79
2023/09/21 09:03:58;;;;;;;9.57;4.10;;;;;;;49.23;16.24;99353.16;5051294;27;97833;-80
2023/09/21 09:06:24;;;;;;;4.75;3.42;;;;;;;49.29;16.15;99348.22;5052519;27;97128;-80
2023/09/21 09:08:51;;;;;;;4.45;3.05;;;;;;;51.15;14.81;99350.66;5030873;27;97342;-81
2023/09/21 09:11:35;;;;;;;10.82;4.10;;;;;;;49.14;16.82;99355.94;5040951;27;101372;-81
2023/09/21 09:14:02;;;;;;;6.50;3.78;;;;;;;50.36;15.08;99347.00;5020670;27;97396;-80
2023/09/21 09:16:28;;;;;;;5.30;3.70;;;;;;;50.57;15.26;99352.53;5015268;27;97098;-80
2023/09/21 09:18:58;;;;;;;7.32;4.30;;;;;;;51.98;14.44;99343.00;5046661;27;97195;-80
2023/09/21 09:21:23;;;;;;;6.80;3.38;;;;;;;51.50;14.52;99338.28;5027661;27;101394;-77
2023/09/21 09:23:49;;;;;;;7.40;4.53;;;;;;;52.57;14.24;99338.81;5047725;27;97495;-75
2023/09/21 09:26:16;;;;;;;7.00;3.75;;;;;;;50.76;15.25;99340.06;5049457;27;96816;-74
2023/09/21 09:28:41;;;;;;;6.20;3.45;;;;;;;48.19;16.98;99330.94;5040354;27;96853;-76
2023/09/21 09:31:10;;;;;;;9.95;4.38;;;;;;;50.87;14.88;99328.09;5038161;27;99365;-75
2023/09/21 09:33:37;;;;;;;17.00;4.28;;;;;;;48.35;16.37;99328.47;5040485;27;101342;-75
2023/09/21 09:36:03;;;;;;;10.05;3.97;;;;;;;45.46;18.79;99323.25;5043568;27;97260;-74
2023/09/21 09:38:28;;;;;;;7.45;3.78;;;;;;;48.01;17.12;99305.88;5029655;27;97384;-74
2023/09/21 09:40:56;;;;;;;4.60;4.00;;;;;;;47.04;17.36;99316.13;5049643;27;97660;-75
2023/09/21 09:43:26;;;;;;;12.82;3.92;;;;;;;47.95;16.74;99301.63;5043269;27;101461;-75
2023/09/21 09:45:51;;;;;;;5.80;3.75;;;;;;;46.46;17.92;99307.56;5045447;27;96869;-75
2023/09/21 09:48:19;;;;;;;11.95;4.45;;;;;;;45.31;18.55;99308.59;5032723;27;97017;-74
2023/09/21 09:50:54;;;;;;;4.18;3.25;;;;;;;45.76;18.31;99305.19;5042643;27;97738;-77
2023/09/21 09:53:23;;;;;;;5.60;3.33;;;;;;;44.76;19.29;99282.72;5045158;27;97641;-77
2023/09/21 09:55:53;;;;;;;4.55;3.10;;;;;;;43.47;20.00;99316.81;5030367;27;97478;-76
2023/09/21 09:58:20;;;;;;;5.75;3.15;;;;;;;44.64;19.39;99313.63;5018510;27;97308;-84
2023/09/21 10:00:47;;;;;;;8.00;3.40;;;;;;;44.69;19.28;99292.22;5041740;27;97769;-84
2023/09/21 10:03:12;;;;;;;9.18;3.08;;;;;;;41.33;22.09;99307.97;5024854;27;97884;-84
2023/09/21 10:05:42;;;;;;;4.55;2.83;;;;;;;39.23;24.22;99304.69;5045257;27;97764;-83
2023/09/21 10:08:08;;;;;;;9.85;3.08;;;;;;;36.86;27.59;99304.09;5039073;27;97420;-83
2023/09/21 10:10:51;;;;;;;4.70;2.67;;;;;;;35.78;28.41;99295.75;5031705;27;101819;-81
2023/09/21 10:13:18;;;;;;;5.55;2.65;;;;;;;33.61;31.44;99306.00;5039067;27;98132;-81
2023/09/21 10:15:48;;;;;;;7.55;2.90;;;;;;;32.75;32.92;99304.03;5028060;27;97522;-82
2023/09/21 10:18:33;;;;;;;6.97;3.08;;;;;;;32.15;33.92;99301.72;5024012;27;97703;-78
2023/09/21 10:21:24;;;;;;;11.63;3.63;;;;;;;31.43;35.46;99298.19;5045681;27;97586;-76
2023/09/21 10:24:03;;;;;;;9.32;3.47;;;;;;;30.23;36.30;99290.00;5026992;27;100976;-78
2023/09/21 10:26:38;;;;;;;10.75;6.05;;;;;;;29.88;37.87;99298.19;5029675;28;97252;-79
2023/09/21 10:29:05;;;;;;;13.85;3.55;;;;;;;30.26;37.66;99297.72;5025158;27;97303;-76
2023/09/21 10:31:33;;;;;;;6.07;3.38;;;;;;;29.96;38.31;99289.91;5045480;27;98574;-80
2023/09/21 10:33:58;;;;;;;11.48;2.92;;;;;;;30.17;37.74;99294.31;5026878;27;97887;-79
2023/09/21 10:36:28;;;;;;;6.15;3.13;;;;;;;29.81;38.56;99289.19;5043514;27;96902;-80
2023/09/21 10:39:06;;;;;;;6.93;3.67;;;;;;;29.55;39.42;99287.16;5030089;28;97144;-80
2023/09/21 10:41:33;;;;;;;6.80;3.33;;;;;;;29.54;38.97;99274.69;5024415;27;100516;-80
2023/09/21 10:44:02;;;;;;;15.88;3.80;;;;;;;29.54;38.96;99274.69;5030625;27;101337;-82
2023/09/21 10:46:31;;;;;;;10.40;3.37;;;;;;;29.55;38.75;99268.25;5025308;27;97182;-82
2023/09/21 10:49:11;;;;;;;8.00;2.63;;;;;;;29.50;39.39;99259.91;5011252;27;98516;-81
2023/09/21 10:51:39;;;;;;;7.65;2.90;;;;;;;29.17;40.25;99263.25;5051661;27;97491;-76
2023/09/21 10:54:06;;;;;;;6.18;2.45;;;;;;;29.31;39.78;99270.41;5012251;27;101363;-78
2023/09/21 10:56:36;;;;;;;11.15;2.90;;;;;;;28.84;40.29;99266.50;5013804;27;97486;-80
2023/09/21 10:59:02;;;;;;;10.60;2.80;;;;;;;28.94;40.77;99259.94;5048575;27;97418;-76
2023/09/21 11:01:27;;;;;;;10.15;3.72;;;;;;;29.22;39.97;99243.75;5034291;27;101000;-77
2023/09/21 11:03:53;;;;;;;11.13;3.10;;;;;;;28.99;39.95;99235.88;5030137;27;101122;-75
2023/09/21 11:06:20;;;;;;;8.75;2.70;;;;;;;29.33;40.08;99241.31;5024322;28;96792;-77
2023/09/21 11:08:49;;;;;;;8.02;2.80;;;;;;;29.06;40.28;99237.63;5031802;27;96773;-73
2023/09/21 11:11:15;;;;;;;16.65;3.28;;;;;;;28.94;40.32;99227.53;5053075;27;97465;-83
2023/09/21 11:13:42;;;;;;;6.45;2.30;;;;;;;29.20;39.99;99230.41;5013528;27;102001;-83
2023/09/21 11:16:09;;;;;;;7.78;2.65;;;;;;;29.19;39.68;99214.44;5046133;27;97208;-83
2023/09/21 11:18:38;;;;;;;16.00;3.30;;;;;;;29.24;39.97;99241.69;5049477;27;97460;-85
2023/09/21 11:21:03;;;;;;;8.07;3.03;;;;;;;29.20;39.97;99224.19;5031718;27;98303;-84
2023/09/21 11:23:32;;;;;;;9.00;2.60;;;;;;;29.47;39.46;99233.28;5033882;27;98642;-84
2023/09/21 11:26:02;;;;;;;21.02;3.95;;;;;;;29.62;36.79;99225.03;5047907;27;96924;-82